createdAt,value
2024-01-06T00:02:20.169Z,7.17
2024-01-06T00:04:48.252Z,12.43
2024-01-06T00:07:16.270Z,11.90
2024-01-06T00:09:44.388Z,12.03
2024-01-06T00:12:13.971Z,17.93
2024-01-06T00:14:44.967Z,17.30
2024-01-06T00:17:13.112Z,6.57
2024-01-06T00:19:41.265Z,12.53
2024-01-06T00:22:09.827Z,14.03
2024-01-06T00:24:38.013Z,8.07
2024-01-06T00:27:06.613Z,8.97
2024-01-06T00:29:35.990Z,9.80
2024-01-06T00:32:04.186Z,18.50
2024-01-06T00:34:32.267Z,10.23
2024-01-06T00:37:00.357Z,10.17
2024-01-06T00:39:28.466Z,15.57
2024-01-06T00:41:55.558Z,13.67
2024-01-06T00:44:23.597Z,16.57
2024-01-06T00:46:53.026Z,22.73
2024-01-06T00:49:21.137Z,20.57
2024-01-06T00:51:49.291Z,10.00
2024-01-06T00:54:17.415Z,9.90
2024-01-06T00:56:45.830Z,8.23
2024-01-06T00:59:15.302Z,6.37
2024-01-06T01:01:44.770Z,9.90
2024-01-06T01:04:15.627Z,8.27
2024-01-06T01:06:45.076Z,7.40
2024-01-06T01:09:15.367Z,18.27
2024-01-06T01:11:44.709Z,7.60
2024-01-06T01:14:13.263Z,14.90
2024-01-06T01:16:41.309Z,8.20
2024-01-06T01:19:09.424Z,7.60
2024-01-06T01:21:38.865Z,11.33
2024-01-06T01:24:07.608Z,9.77
2024-01-06T01:26:35.706Z,6.67
2024-01-06T01:29:04.158Z,8.20
2024-01-06T01:31:32.321Z,8.87
2024-01-06T01:34:00.526Z,7.30
2024-01-06T01:36:28.698Z,9.60
2024-01-06T01:38:58.108Z,11.40
2024-01-06T01:41:27.268Z,10.07
2024-01-06T01:43:59.421Z,11.00
2024-01-06T01:46:28.401Z,6.93
2024-01-06T01:48:57.695Z,7.33
2024-01-06T01:51:29.131Z,9.10
2024-01-06T01:53:59.176Z,4.30
2024-01-06T01:56:27.951Z,6.60
2024-01-06T01:58:56.671Z,8.17
2024-01-06T02:01:24.890Z,6.70
2024-01-06T02:03:53.102Z,8.67
2024-01-06T02:06:21.211Z,8.27
2024-01-06T02:08:49.310Z,5.20
2024-01-06T02:11:18.759Z,8.10
2024-01-06T02:13:46.810Z,5.07
2024-01-06T02:16:14.941Z,3.60
2024-01-06T02:18:43.312Z,7.73
2024-01-06T02:21:12.755Z,6.30
2024-01-06T02:23:42.211Z,6.90
2024-01-06T02:26:10.270Z,6.50
2024-01-06T02:28:38.335Z,4.43
2024-01-06T02:31:06.588Z,3.70
2024-01-06T02:33:35.004Z,4.50
2024-01-06T02:36:03.247Z,4.03
2024-01-06T02:38:31.274Z,4.30
2024-01-06T02:41:00.714Z,4.00
2024-01-06T02:43:28.775Z,6.43
2024-01-06T02:45:56.871Z,4.60
2024-01-06T02:48:25.084Z,6.37
2024-01-06T02:50:53.140Z,4.97
2024-01-06T02:53:21.261Z,3.53
2024-01-06T02:55:49.330Z,3.33
2024-01-06T02:58:18.727Z,9.53
2024-01-06T03:00:46.866Z,3.73
2024-01-06T03:03:15.144Z,4.87
2024-01-06T03:05:43.257Z,5.97
2024-01-06T03:08:11.310Z,5.43
2024-01-06T03:10:39.395Z,10.73
2024-01-06T03:13:07.506Z,10.37
2024-01-06T03:15:36.971Z,5.00
2024-01-06T03:18:05.442Z,4.80
2024-01-06T03:20:33.488Z,3.60
2024-01-06T03:23:01.520Z,9.20
2024-01-06T03:25:29.618Z,4.67
2024-01-06T03:27:57.687Z,8.97
2024-01-06T03:30:25.881Z,4.17
2024-01-06T03:32:55.461Z,5.97
2024-01-06T03:35:23.472Z,5.07
2024-01-06T03:37:51.560Z,5.30
2024-01-06T03:40:19.596Z,5.30
2024-01-06T03:42:47.685Z,4.03
2024-01-06T03:45:16.116Z,4.33
2024-01-06T03:47:44.278Z,3.20
2024-01-06T03:50:15.110Z,3.57
2024-01-06T03:52:43.203Z,3.30
2024-01-06T03:55:11.764Z,3.57
2024-01-06T03:57:39.859Z,16.80
2024-01-06T04:00:09.682Z,5.33
2024-01-06T04:02:37.700Z,4.23
2024-01-06T04:05:07.130Z,3.70
2024-01-06T04:07:36.499Z,3.97
2024-01-06T04:10:04.800Z,6.67
2024-01-06T04:12:32.999Z,3.70
2024-01-06T04:15:01.014Z,4.20
2024-01-06T04:17:29.087Z,3.07
2024-01-06T04:19:57.178Z,4.83
2024-01-06T04:22:25.298Z,2.73
2024-01-06T04:24:54.822Z,4.40
2024-01-06T04:27:22.939Z,3.47
2024-01-06T04:29:54.196Z,3.30
2024-01-06T04:32:22.484Z,3.50
2024-01-06T04:34:50.626Z,6.43
2024-01-06T04:37:18.713Z,2.80
2024-01-06T04:39:46.859Z,3.50
2024-01-06T04:42:16.279Z,3.30
2024-01-06T04:44:46.436Z,2.73
2024-01-06T04:47:14.486Z,3.00
2024-01-06T04:49:42.583Z,3.33
2024-01-06T04:52:10.634Z,4.87
2024-01-06T04:54:38.697Z,3.40
2024-01-06T04:57:07.017Z,4.53
2024-01-06T04:59:36.474Z,5.43
2024-01-06T05:02:05.352Z,5.23
2024-01-06T05:04:33.890Z,2.90
2024-01-06T05:07:02.087Z,3.40
2024-01-06T05:09:30.236Z,3.10
2024-01-06T05:11:58.288Z,2.87
2024-01-06T05:14:26.373Z,3.30
2024-01-06T05:16:55.797Z,5.97
2024-01-06T05:19:24.144Z,3.43
2024-01-06T05:21:52.396Z,5.83
2024-01-06T05:24:21.041Z,7.50
2024-01-06T05:26:49.166Z,7.13
2024-01-06T05:29:17.317Z,5.87
2024-01-06T05:31:47.232Z,8.73
2024-01-06T05:34:17.043Z,8.10
2024-01-06T05:36:45.205Z,8.47
2024-01-06T05:39:13.272Z,4.90
2024-01-06T05:41:41.594Z,3.13
2024-01-06T05:44:09.667Z,6.90
2024-01-06T05:46:37.806Z,7.67
2024-01-06T05:49:06.254Z,4.27
2024-01-06T05:51:35.875Z,4.97
2024-01-06T05:54:04.353Z,3.40
2024-01-06T05:56:32.481Z,3.93
2024-01-06T05:59:00.502Z,4.17
2024-01-06T06:01:28.600Z,6.50
2024-01-06T06:03:56.713Z,4.20
2024-01-06T06:06:24.742Z,3.73
2024-01-06T06:08:54.154Z,4.63
2024-01-06T06:11:22.254Z,3.43
2024-01-06T06:13:50.283Z,3.27
2024-01-06T06:16:18.373Z,3.20
2024-01-06T06:18:46.551Z,3.33
2024-01-06T06:21:14.711Z,2.93
2024-01-06T06:23:42.795Z,3.13
2024-01-06T06:26:12.980Z,2.70
2024-01-06T06:28:41.052Z,3.20
2024-01-06T06:31:09.443Z,12.37
2024-01-06T06:33:37.905Z,7.03
2024-01-06T06:36:06.559Z,3.00
2024-01-06T06:38:34.671Z,3.80
2024-01-06T06:41:02.805Z,4.10
2024-01-06T06:43:32.374Z,4.40
2024-01-06T06:46:00.550Z,6.80
2024-01-06T06:48:28.748Z,13.87
2024-01-06T06:50:56.866Z,8.57
2024-01-06T06:53:24.888Z,6.67
2024-01-06T06:55:52.883Z,4.80
2024-01-06T06:58:20.969Z,8.80
2024-01-06T07:00:50.471Z,21.63
2024-01-06T07:03:18.736Z,9.33
2024-01-06T07:05:46.971Z,5.30
2024-01-06T07:08:16.283Z,6.70
2024-01-06T07:10:44.353Z,12.10
2024-01-06T07:13:12.390Z,11.90
2024-01-06T07:15:40.479Z,5.53
2024-01-06T07:18:10.617Z,5.07
2024-01-06T07:20:38.711Z,6.07
2024-01-06T07:23:06.765Z,10.03
2024-01-06T07:25:34.775Z,8.60
2024-01-06T07:28:03.375Z,11.43
2024-01-06T07:30:31.550Z,8.87
2024-01-06T07:32:59.726Z,15.43
2024-01-06T07:35:30.058Z,14.10
2024-01-06T07:37:58.132Z,8.03
2024-01-06T07:40:26.820Z,8.83
2024-01-06T07:42:55.168Z,10.03
2024-01-06T07:45:23.409Z,9.53
2024-01-06T07:47:51.657Z,10.83
2024-01-06T07:50:19.946Z,9.30
2024-01-06T07:52:48.339Z,8.27
2024-01-06T07:55:16.490Z,4.90
2024-01-06T07:57:45.388Z,5.50
2024-01-06T08:00:15.769Z,2.87
2024-01-06T08:02:44.141Z,4.30
2024-01-06T08:05:12.491Z,15.63
2024-01-06T08:07:40.987Z,14.70
2024-01-06T08:10:11.160Z,2.90
2024-01-06T08:12:39.438Z,1.97
2024-01-06T08:15:09.672Z,11.53
2024-01-06T08:17:38.631Z,10.10
2024-01-06T08:20:07.545Z,10.83
2024-01-06T08:22:35.728Z,12.53
2024-01-06T08:25:04.096Z,5.43
2024-01-06T08:27:33.611Z,6.07
2024-01-06T08:30:01.994Z,3.83
2024-01-06T08:32:30.266Z,8.73
2024-01-06T08:34:58.375Z,19.67
2024-01-06T08:37:26.469Z,12.73
2024-01-06T08:39:54.499Z,8.23
2024-01-06T08:42:22.778Z,3.53
2024-01-06T08:44:52.423Z,11.43
2024-01-06T08:47:20.927Z,5.43
2024-01-06T08:49:49.145Z,7.83
2024-01-06T08:52:17.243Z,7.80
2024-01-06T08:54:45.686Z,3.53
2024-01-06T08:57:13.809Z,1.60
2024-01-06T08:59:42.098Z,3.23
2024-01-06T09:02:11.472Z,1.90
2024-01-06T09:04:39.660Z,2.07
2024-01-06T09:07:07.877Z,3.67
2024-01-06T09:09:35.972Z,4.03
2024-01-06T09:12:03.607Z,4.93
2024-01-06T09:14:31.705Z,1.60
2024-01-06T09:16:59.742Z,3.43
2024-01-06T09:19:29.559Z,2.23
2024-01-06T09:21:57.751Z,1.57
2024-01-06T09:24:25.914Z,6.00
2024-01-06T09:26:53.992Z,1.40
2024-01-06T09:29:22.452Z,1.73
2024-01-06T09:31:50.610Z,3.83
2024-01-06T09:34:18.905Z,2.73
2024-01-06T09:36:48.444Z,3.63
2024-01-06T09:39:16.593Z,1.90
2024-01-06T09:41:45.022Z,2.73
2024-01-06T09:44:16.175Z,1.93
2024-01-06T09:46:45.073Z,1.93
2024-01-06T09:49:16.499Z,2.53
2024-01-06T09:51:45.126Z,1.63
2024-01-06T09:54:16.281Z,1.30
2024-01-06T09:56:48.351Z,1.83
2024-01-06T09:59:16.744Z,3.63
2024-01-06T10:01:46.398Z,1.67
2024-01-06T10:04:19.686Z,1.40
2024-01-06T10:06:49.698Z,1.20
2024-01-06T10:09:19.143Z,1.27
2024-01-06T10:11:47.236Z,2.03
2024-01-06T10:14:15.327Z,1.50
2024-01-06T10:16:43.893Z,1.40
2024-01-06T10:19:12.202Z,3.00
2024-01-06T10:21:41.204Z,1.50
2024-01-06T10:24:10.835Z,1.90
2024-01-06T10:26:41.234Z,2.80
2024-01-06T10:29:09.344Z,4.83
2024-01-06T10:31:37.810Z,1.40
2024-01-06T10:34:07.897Z,1.23
2024-01-06T10:36:37.001Z,1.60
2024-01-06T10:39:05.489Z,1.43
2024-01-06T10:41:34.076Z,1.40
2024-01-06T10:44:05.194Z,1.40
2024-01-06T10:46:33.874Z,1.37
2024-01-06T10:49:02.894Z,1.20
2024-01-06T10:51:32.082Z,1.40
2024-01-06T10:54:02.904Z,2.80
2024-01-06T10:56:31.898Z,1.70
2024-01-06T10:59:00.706Z,3.40
2024-01-06T11:01:32.339Z,3.13
2024-01-06T11:04:01.681Z,1.43
2024-01-06T11:06:30.734Z,1.57
2024-01-06T11:09:04.419Z,2.20
2024-01-06T11:11:33.372Z,3.00
2024-01-06T11:14:19.828Z,1.60
2024-01-06T11:16:49.389Z,1.23
2024-01-06T11:19:47.726Z,1.48
2024-01-06T11:22:32.792Z,2.10
2024-01-06T11:25:08.500Z,1.50
2024-01-06T11:27:38.022Z,1.70
2024-01-06T11:30:08.056Z,1.00
2024-01-06T11:32:40.886Z,1.60
2024-01-06T11:35:10.924Z,2.10
2024-01-06T11:37:52.782Z,2.00
2024-01-06T11:40:26.655Z,2.70
2024-01-06T11:43:06.480Z,8.00
2024-01-06T11:45:35.305Z,1.40
2024-01-06T11:48:07.292Z,2.53
2024-01-06T11:50:37.332Z,2.75
2024-01-06T11:53:06.322Z,3.07
2024-01-06T11:55:35.753Z,2.00
2024-01-06T11:58:05.671Z,1.63
2024-01-06T12:00:34.752Z,1.90
2024-01-06T12:03:04.623Z,2.20
2024-01-06T12:05:32.720Z,2.00
2024-01-06T12:08:01.948Z,2.97
2024-01-06T12:10:31.387Z,1.53
2024-01-06T12:13:01.126Z,3.33
2024-01-06T12:15:30.105Z,1.57
2024-01-06T12:17:58.938Z,1.60
2024-01-06T12:20:30.108Z,3.77
2024-01-06T12:22:58.454Z,1.80
2024-01-06T12:25:29.847Z,1.90
2024-01-06T12:27:58.270Z,1.93
2024-01-06T12:30:27.560Z,1.47
2024-01-06T12:32:56.046Z,1.90
2024-01-06T12:35:24.365Z,1.80
2024-01-06T12:37:53.820Z,1.80
2024-01-06T12:40:22.740Z,2.30
2024-01-06T12:42:51.028Z,1.53
2024-01-06T12:45:19.230Z,1.43
2024-01-06T12:47:47.530Z,1.37
2024-01-06T12:50:16.192Z,1.57
2024-01-06T12:52:44.314Z,1.50
2024-01-06T12:55:14.130Z,1.23
2024-01-06T12:57:42.362Z,1.40
2024-01-06T13:00:13.298Z,2.00
2024-01-06T13:02:41.492Z,1.50
2024-01-06T13:05:10.816Z,2.40
2024-01-06T13:07:39.147Z,2.83
2024-01-06T13:10:08.550Z,1.50
2024-01-06T13:12:38.088Z,1.70
2024-01-06T13:15:07.271Z,1.70
2024-01-06T13:17:35.474Z,1.47
2024-01-06T13:20:03.672Z,1.40
2024-01-06T13:22:31.889Z,1.47
2024-01-06T13:25:00.537Z,1.80
2024-01-06T13:27:29.534Z,1.57
2024-01-06T13:29:59.979Z,2.10
2024-01-06T13:32:29.124Z,1.90
2024-01-06T13:35:03.178Z,1.63
2024-01-06T13:37:31.289Z,1.52
2024-01-06T13:39:59.452Z,2.27
2024-01-06T13:42:27.839Z,2.10
2024-01-06T13:44:55.963Z,1.70
2024-01-06T13:47:25.473Z,1.97
2024-01-06T13:49:56.387Z,2.10
2024-01-06T13:52:24.675Z,1.83
2024-01-06T13:54:53.341Z,2.33
2024-01-06T13:57:21.753Z,2.30
2024-01-06T13:59:49.858Z,2.50
2024-01-06T14:02:18.692Z,2.83
2024-01-06T14:04:49.330Z,2.67
2024-01-06T14:07:20.176Z,2.27
2024-01-06T14:09:48.522Z,2.00
2024-01-06T14:12:16.908Z,4.17
2024-01-06T14:14:45.013Z,4.20
2024-01-06T14:17:13.225Z,2.53
2024-01-06T14:19:42.858Z,2.90
2024-01-06T14:22:15.356Z,3.77
2024-01-06T14:24:43.643Z,3.50
2024-01-06T14:27:11.881Z,3.83
2024-01-06T14:29:40.472Z,8.10
2024-01-06T14:32:08.891Z,4.20
2024-01-06T14:34:37.443Z,6.83
2024-01-06T14:37:05.762Z,5.83
2024-01-06T14:39:37.759Z,4.47
2024-01-06T14:42:06.351Z,4.30
2024-01-06T14:44:34.560Z,4.87
2024-01-06T14:47:02.792Z,3.20
2024-01-06T14:49:31.252Z,4.57
2024-01-06T14:52:06.237Z,3.43
2024-01-06T14:54:37.089Z,3.30
2024-01-06T14:57:05.338Z,2.80
2024-01-06T14:59:33.925Z,6.00
2024-01-06T15:02:02.060Z,4.70
2024-01-06T15:04:31.022Z,6.30
2024-01-06T15:06:59.409Z,4.63
2024-01-06T15:09:29.217Z,4.20
2024-01-06T15:11:58.829Z,4.73
2024-01-06T15:14:26.917Z,4.07
2024-01-06T15:16:54.964Z,5.83
2024-01-06T15:19:25.025Z,5.20
2024-01-06T15:21:53.280Z,4.10
2024-01-06T15:24:21.364Z,4.90
2024-01-06T15:26:49.493Z,5.20
2024-01-06T15:29:17.942Z,6.00
2024-01-06T15:31:46.164Z,5.70
2024-01-06T15:34:14.662Z,6.03
2024-01-06T15:36:43.019Z,6.63
2024-01-06T15:39:11.490Z,5.40
2024-01-06T15:41:39.523Z,6.10
2024-01-06T15:44:07.639Z,6.30
2024-01-06T15:46:37.036Z,4.93
2024-01-06T15:49:05.272Z,8.43
2024-01-06T15:51:33.449Z,6.80
2024-01-06T15:54:01.603Z,5.53
2024-01-06T15:56:29.637Z,5.47
2024-01-06T15:58:58.888Z,10.83
2024-01-06T16:01:26.985Z,9.00
2024-01-06T16:03:56.535Z,10.33
2024-01-06T16:06:24.792Z,9.10
2024-01-06T16:08:52.901Z,7.80
2024-01-06T16:11:20.936Z,9.30
2024-01-06T16:13:48.993Z,9.53
2024-01-06T16:16:17.562Z,9.37
2024-01-06T16:18:46.957Z,9.60
2024-01-06T16:21:24.372Z,9.33
2024-01-06T16:23:52.611Z,11.47
2024-01-06T16:26:21.196Z,13.03
2024-01-06T16:28:49.354Z,11.80
2024-01-06T16:31:18.587Z,12.07
2024-01-06T16:33:48.517Z,12.57
2024-01-06T16:36:18.092Z,12.77
2024-01-06T16:38:46.217Z,15.10
2024-01-06T16:41:14.349Z,14.67
2024-01-06T16:43:42.432Z,16.80
2024-01-06T16:46:10.990Z,15.70
2024-01-06T16:48:39.327Z,12.00
2024-01-06T16:51:07.820Z,11.50
2024-01-06T16:53:37.213Z,19.90
2024-01-06T16:56:05.759Z,21.77
2024-01-06T16:58:33.956Z,19.80
2024-01-06T17:01:03.690Z,15.47
2024-01-06T17:03:31.990Z,13.27
2024-01-06T17:06:00.292Z,18.43
2024-01-06T17:08:29.389Z,12.03
2024-01-06T17:10:59.104Z,17.80
2024-01-06T17:13:27.128Z,9.90
2024-01-06T17:15:55.643Z,15.60
2024-01-06T17:18:23.972Z,15.40
2024-01-06T17:20:52.274Z,21.00
2024-01-06T17:23:20.285Z,15.20
2024-01-06T17:25:48.290Z,16.23
2024-01-06T17:28:17.930Z,16.17
2024-01-06T17:30:46.100Z,15.63
2024-01-06T17:33:14.838Z,19.70
2024-01-06T17:35:42.977Z,17.67
2024-01-06T17:38:11.783Z,20.37
2024-01-06T17:40:39.866Z,19.07
2024-01-06T17:43:08.045Z,9.93
2024-01-06T17:45:37.919Z,15.40
2024-01-06T17:48:06.939Z,20.70
2024-01-06T17:50:35.146Z,24.80
2024-01-06T17:53:03.260Z,11.53
2024-01-06T17:55:31.300Z,14.47
2024-01-06T17:57:59.447Z,14.13
2024-01-06T18:00:27.508Z,18.37
2024-01-06T18:02:57.085Z,18.07
2024-01-06T18:05:25.900Z,19.93
2024-01-06T18:07:54.368Z,17.93
2024-01-06T18:10:22.490Z,13.53
2024-01-06T18:12:50.786Z,17.20
2024-01-06T18:15:19.190Z,22.07
2024-01-06T18:17:48.341Z,21.20
2024-01-06T18:20:22.331Z,18.97
2024-01-06T18:22:51.158Z,18.67
2024-01-06T18:25:19.212Z,13.77
2024-01-06T18:27:47.332Z,11.30
2024-01-06T18:30:15.780Z,15.23
2024-01-06T18:32:44.066Z,21.90
2024-01-06T18:35:12.162Z,19.97
2024-01-06T18:37:41.609Z,18.10
2024-01-06T18:40:10.772Z,17.53
2024-01-06T18:42:38.917Z,20.10
2024-01-06T18:45:08.004Z,21.53
2024-01-06T18:47:37.468Z,14.90
2024-01-06T18:50:06.770Z,23.53
2024-01-06T18:52:34.881Z,22.13
2024-01-06T18:55:04.995Z,20.17
2024-01-06T18:57:34.436Z,17.73
2024-01-06T19:00:02.601Z,19.57
2024-01-06T19:02:30.740Z,18.23
2024-01-06T19:04:58.844Z,20.90
2024-01-06T19:07:26.943Z,11.53
2024-01-06T19:09:54.993Z,16.10
2024-01-06T19:12:24.457Z,24.00
2024-01-06T19:14:52.544Z,22.53
2024-01-06T19:17:20.854Z,16.00
2024-01-06T19:19:49.003Z,14.00
2024-01-06T19:22:17.186Z,21.43
2024-01-06T19:24:45.238Z,18.50
2024-01-06T19:27:13.606Z,23.17
2024-01-06T19:29:47.263Z,18.00
2024-01-06T19:32:16.355Z,19.00
2024-01-06T19:34:44.684Z,16.03
2024-01-06T19:37:13.098Z,18.47
2024-01-06T19:39:41.293Z,18.63
2024-01-06T19:42:09.461Z,17.80
2024-01-06T19:44:37.536Z,20.00
2024-01-06T19:47:07.456Z,17.37
2024-01-06T19:49:35.520Z,18.93
2024-01-06T19:52:03.923Z,22.00
2024-01-06T19:54:33.672Z,20.07
2024-01-06T19:57:02.138Z,25.17
2024-01-06T19:59:30.267Z,28.27
2024-01-06T20:01:58.431Z,21.13
2024-01-06T20:04:29.372Z,20.57
2024-01-06T20:06:57.675Z,28.23
2024-01-06T20:09:25.884Z,28.00
2024-01-06T20:11:54.547Z,26.80
2024-01-06T20:14:22.636Z,20.23
2024-01-06T20:16:50.650Z,19.40
2024-01-06T20:19:18.988Z,19.67
2024-01-06T20:21:48.742Z,16.73
2024-01-06T20:24:16.869Z,16.37
2024-01-06T20:26:44.940Z,22.83
2024-01-06T20:29:13.822Z,19.30
2024-01-06T20:31:42.149Z,21.30
2024-01-06T20:34:10.456Z,21.90
2024-01-06T20:36:38.590Z,24.03
2024-01-06T20:39:08.659Z,20.30
2024-01-06T20:41:36.737Z,28.30
2024-01-06T20:44:06.602Z,18.97
2024-01-06T20:46:35.623Z,25.57
2024-01-06T20:49:04.346Z,20.90
2024-01-06T20:51:32.560Z,24.97
2024-01-06T20:54:00.651Z,24.67
2024-01-06T20:56:30.131Z,23.90
2024-01-06T20:58:58.169Z,33.57
2024-01-06T21:01:26.451Z,25.73
2024-01-06T21:03:56.377Z,19.17
2024-01-06T21:06:24.830Z,26.17
2024-01-06T21:08:53.066Z,25.13
2024-01-06T21:11:21.168Z,22.27
2024-01-06T21:13:51.383Z,24.70
2024-01-06T21:16:19.392Z,22.47
2024-01-06T21:18:49.982Z,23.93
2024-01-06T21:21:20.009Z,16.03
2024-01-06T21:23:49.467Z,19.07
2024-01-06T21:26:17.966Z,20.67
2024-01-06T21:28:47.565Z,17.23
2024-01-06T21:31:17.397Z,15.87
2024-01-06T21:33:48.673Z,22.07
2024-01-06T21:36:17.679Z,24.10
2024-01-06T21:38:46.150Z,30.97
2024-01-06T21:41:14.663Z,27.20
2024-01-06T21:43:43.013Z,21.40
2024-01-06T21:46:11.135Z,25.37
2024-01-06T21:48:40.716Z,27.53
2024-01-06T21:51:09.345Z,29.37
2024-01-06T21:53:37.531Z,26.03
2024-01-06T21:56:06.120Z,32.53
2024-01-06T21:58:35.455Z,25.97
2024-01-06T22:01:04.029Z,25.80
2024-01-06T22:03:32.264Z,26.63
2024-01-06T22:06:01.781Z,29.50
2024-01-06T22:08:29.828Z,27.53
2024-01-06T22:10:57.833Z,36.60
2024-01-06T22:13:25.852Z,24.90
2024-01-06T22:15:53.903Z,32.67
2024-01-06T22:18:22.921Z,29.50
2024-01-06T22:20:51.129Z,27.07
2024-01-06T22:23:20.593Z,33.43
2024-01-06T22:25:48.667Z,30.57
2024-01-06T22:28:16.761Z,36.10
2024-01-06T22:30:45.045Z,29.47
2024-01-06T22:33:15.063Z,27.10
2024-01-06T22:35:44.130Z,32.53
2024-01-06T22:38:12.222Z,29.40
2024-01-06T22:40:41.632Z,26.00
2024-01-06T22:43:09.675Z,25.37
2024-01-06T22:45:39.256Z,22.10
2024-01-06T22:48:07.926Z,23.67
2024-01-06T22:50:36.223Z,25.80
2024-01-06T22:53:05.536Z,32.80
2024-01-06T22:55:33.651Z,20.77
2024-01-06T22:58:03.113Z,29.43
2024-01-06T23:00:37.050Z,24.13
2024-01-06T23:03:07.415Z,23.43
2024-01-06T23:05:35.763Z,24.57
2024-01-06T23:08:07.118Z,38.80
2024-01-06T23:10:35.288Z,26.23
2024-01-06T23:13:04.947Z,25.30
2024-01-06T23:15:33.205Z,36.00
2024-01-06T23:18:01.379Z,25.87
2024-01-06T23:20:29.444Z,20.63
2024-01-06T23:22:57.476Z,23.80
2024-01-06T23:25:26.140Z,24.43
2024-01-06T23:27:54.236Z,20.43
2024-01-06T23:30:23.758Z,20.63
2024-01-06T23:32:51.985Z,27.10
2024-01-06T23:35:20.138Z,22.50
2024-01-06T23:37:51.540Z,26.43
2024-01-06T23:40:20.112Z,26.20
2024-01-06T23:42:48.198Z,27.57
2024-01-06T23:45:16.387Z,28.30
2024-01-06T23:47:45.864Z,22.10
2024-01-06T23:50:14.048Z,23.07
2024-01-06T23:52:42.098Z,21.47
2024-01-06T23:55:11.338Z,26.57
2024-01-06T23:57:39.689Z,27.87
